sensor_id;sensor_type;location;lat;lon;timestamp;P1;durP1;ratioP1;P2;durP2;ratioP2
9836;SDS011;4957;51.412;6.724;2023-08-31T00:02:11;0.00;;;0.00;;
9836;SDS011;4957;51.412;6.724;2023-08-31T00:04:37;0.00;;;0.00;;
9836;SDS011;4957;51.412;6.724;2023-08-31T00:07:03;0.00;;;0.00;;
9836;SDS011;4957;51.412;6.724;2023-08-31T00:09:29;0.00;;;0.00;;
9836;SDS011;4957;51.412;6.724;2023-08-31T00:11:54;0.00;;;0.00;;
9836;SDS011;4957;51.412;6.724;2023-08-31T00:14:21;0.10;;;0.10;;
9836;SDS011;4957;51.412;6.724;2023-08-31T00:16:48;0.00;;;0.00;;
9836;SDS011;4957;51.412;6.724;2023-08-31T00:19:15;0.00;;;0.00;;
9836;SDS011;4957;51.412;6.724;2023-08-31T00:21:41;0.00;;;0.00;;
9836;SDS011;4957;51.412;6.724;2023-08-31T00:24:07;0.00;;;0.00;;
9836;SDS011;4957;51.412;6.724;2023-08-31T00:26:33;0.00;;;0.00;;
9836;SDS011;4957;51.412;6.724;2023-08-31T00:28:59;0.10;;;0.10;;
9836;SDS011;4957;51.412;6.724;2023-08-31T00:31:25;0.00;;;0.00;;
9836;SDS011;4957;51.412;6.724;2023-08-31T00:33:52;0.00;;;0.00;;
9836;SDS011;4957;51.412;6.724;2023-08-31T00:36:18;0.00;;;0.00;;
9836;SDS011;4957;51.412;6.724;2023-08-31T00:38:44;0.00;;;0.00;;
9836;SDS011;4957;51.412;6.724;2023-08-31T00:41:09;0.00;;;0.00;;
9836;SDS011;4957;51.412;6.724;2023-08-31T00:43:36;0.00;;;0.00;;
9836;SDS011;4957;51.412;6.724;2023-08-31T00:46:01;0.00;;;0.00;;
9836;SDS011;4957;51.412;6.724;2023-08-31T00:48:27;0.10;;;0.10;;
9836;SDS011;4957;51.412;6.724;2023-08-31T00:50:53;0.00;;;0.00;;
9836;SDS011;4957;51.412;6.724;2023-08-31T00:53:19;0.00;;;0.00;;
9836;SDS011;4957;51.412;6.724;2023-08-31T00:55:46;0.00;;;0.00;;
9836;SDS011;4957;51.412;6.724;2023-08-31T00:58:12;0.00;;;0.00;;
9836;SDS011;4957;51.412;6.724;2023-08-31T01:03:36;0.00;;;0.00;;
9836;SDS011;4957;51.412;6.724;2023-08-31T01:14:56;0.00;;;0.00;;
9836;SDS011;4957;51.412;6.724;2023-08-31T01:17:28;0.00;;;0.00;;
9836;SDS011;4957;51.412;6.724;2023-08-31T01:19:57;0.00;;;0.00;;
9836;SDS011;4957;51.412;6.724;2023-08-31T01:22:36;0.00;;;0.00;;
9836;SDS011;4957;51.412;6.724;2023-08-31T01:25:05;0.00;;;0.00;;
9836;SDS011;4957;51.412;6.724;2023-08-31T01:27:34;0.00;;;0.00;;
9836;SDS011;4957;51.412;6.724;2023-08-31T01:30:01;0.00;;;0.00;;
9836;SDS011;4957;51.412;6.724;2023-08-31T01:32:29;0.00;;;0.00;;
9836;SDS011;4957;51.412;6.724;2023-08-31T01:34:55;0.00;;;0.00;;
9836;SDS011;4957;51.412;6.724;2023-08-31T01:37:42;0.00;;;0.00;;
9836;SDS011;4957;51.412;6.724;2023-08-31T01:40:16;0.00;;;0.00;;
9836;SDS011;4957;51.412;6.724;2023-08-31T01:42:52;0.00;;;0.00;;
9836;SDS011;4957;51.412;6.724;2023-08-31T01:45:20;0.00;;;0.00;;
9836;SDS011;4957;51.412;6.724;2023-08-31T01:47:47;0.00;;;0.00;;
9836;SDS011;4957;51.412;6.724;2023-08-31T01:50:13;0.10;;;0.10;;
9836;SDS011;4957;51.412;6.724;2023-08-31T01:52:39;0.00;;;0.00;;
9836;SDS011;4957;51.412;6.724;2023-08-31T01:55:05;0.00;;;0.00;;
9836;SDS011;4957;51.412;6.724;2023-08-31T01:57:32;0.00;;;0.00;;
9836;SDS011;4957;51.412;6.724;2023-08-31T01:59:58;0.00;;;0.00;;
9836;SDS011;4957;51.412;6.724;2023-08-31T02:02:24;0.00;;;0.00;;
9836;SDS011;4957;51.412;6.724;2023-08-31T02:04:50;0.00;;;0.00;;
9836;SDS011;4957;51.412;6.724;2023-08-31T02:07:16;0.00;;;0.00;;
9836;SDS011;4957;51.412;6.724;2023-08-31T02:09:42;0.00;;;0.00;;
9836;SDS011;4957;51.412;6.724;2023-08-31T02:12:08;0.00;;;0.00;;
9836;SDS011;4957;51.412;6.724;2023-08-31T02:14:37;0.00;;;0.00;;
9836;SDS011;4957;51.412;6.724;2023-08-31T02:17:03;0.00;;;0.00;;
9836;SDS011;4957;51.412;6.724;2023-08-31T02:19:29;0.00;;;0.00;;
9836;SDS011;4957;51.412;6.724;2023-08-31T02:21:55;0.00;;;0.00;;
9836;SDS011;4957;51.412;6.724;2023-08-31T02:24:21;0.00;;;0.00;;
9836;SDS011;4957;51.412;6.724;2023-08-31T02:26:47;0.00;;;0.00;;
9836;SDS011;4957;51.412;6.724;2023-08-31T02:29:14;0.00;;;0.00;;
9836;SDS011;4957;51.412;6.724;2023-08-31T02:31:39;0.00;;;0.00;;
9836;SDS011;4957;51.412;6.724;2023-08-31T02:34:06;0.00;;;0.00;;
9836;SDS011;4957;51.412;6.724;2023-08-31T02:36:32;0.00;;;0.00;;
9836;SDS011;4957;51.412;6.724;2023-08-31T02:38:58;0.00;;;0.00;;
9836;SDS011;4957;51.412;6.724;2023-08-31T02:41:23;0.00;;;0.00;;
9836;SDS011;4957;51.412;6.724;2023-08-31T02:43:52;0.00;;;0.00;;
9836;SDS011;4957;51.412;6.724;2023-08-31T02:46:18;0.00;;;0.00;;
9836;SDS011;4957;51.412;6.724;2023-08-31T02:48:43;0.00;;;0.00;;
9836;SDS011;4957;51.412;6.724;2023-08-31T02:51:09;0.00;;;0.00;;
9836;SDS011;4957;51.412;6.724;2023-08-31T02:53:35;0.10;;;0.10;;
9836;SDS011;4957;51.412;6.724;2023-08-31T02:56:01;0.00;;;0.00;;
9836;SDS011;4957;51.412;6.724;2023-08-31T02:58:27;0.00;;;0.00;;
9836;SDS011;4957;51.412;6.724;2023-08-31T03:00:53;0.00;;;0.00;;
9836;SDS011;4957;51.412;6.724;2023-08-31T03:03:19;0.00;;;0.00;;
9836;SDS011;4957;51.412;6.724;2023-08-31T03:05:45;0.00;;;0.00;;
9836;SDS011;4957;51.412;6.724;2023-08-31T03:08:11;0.00;;;0.00;;
9836;SDS011;4957;51.412;6.724;2023-08-31T03:10:37;0.00;;;0.00;;
9836;SDS011;4957;51.412;6.724;2023-08-31T03:13:03;0.00;;;0.00;;
9836;SDS011;4957;51.412;6.724;2023-08-31T03:15:29;0.00;;;0.00;;
9836;SDS011;4957;51.412;6.724;2023-08-31T03:17:57;0.00;;;0.00;;
9836;SDS011;4957;51.412;6.724;2023-08-31T03:20:23;0.00;;;0.00;;
9836;SDS011;4957;51.412;6.724;2023-08-31T03:22:49;0.00;;;0.00;;
9836;SDS011;4957;51.412;6.724;2023-08-31T03:25:14;0.00;;;0.00;;
9836;SDS011;4957;51.412;6.724;2023-08-31T03:27:40;0.00;;;0.00;;
9836;SDS011;4957;51.412;6.724;2023-08-31T03:30:06;0.00;;;0.00;;
9836;SDS011;4957;51.412;6.724;2023-08-31T03:32:33;0.00;;;0.00;;
9836;SDS011;4957;51.412;6.724;2023-08-31T03:34:58;0.00;;;0.00;;
9836;SDS011;4957;51.412;6.724;2023-08-31T03:37:24;0.00;;;0.00;;
9836;SDS011;4957;51.412;6.724;2023-08-31T03:39:49;0.00;;;0.00;;
9836;SDS011;4957;51.412;6.724;2023-08-31T03:42:15;0.00;;;0.00;;
9836;SDS011;4957;51.412;6.724;2023-08-31T03:44:41;0.00;;;0.00;;
9836;SDS011;4957;51.412;6.724;2023-08-31T03:47:07;0.00;;;0.00;;
9836;SDS011;4957;51.412;6.724;2023-08-31T03:49:33;0.00;;;0.00;;
9836;SDS011;4957;51.412;6.724;2023-08-31T03:52:00;0.00;;;0.00;;
9836;SDS011;4957;51.412;6.724;2023-08-31T03:54:26;0.00;;;0.00;;
9836;SDS011;4957;51.412;6.724;2023-08-31T03:56:51;0.00;;;0.00;;
9836;SDS011;4957;51.412;6.724;2023-08-31T03:59:17;0.00;;;0.00;;
9836;SDS011;4957;51.412;6.724;2023-08-31T04:01:43;0.00;;;0.00;;
9836;SDS011;4957;51.412;6.724;2023-08-31T04:04:09;0.00;;;0.00;;
9836;SDS011;4957;51.412;6.724;2023-08-31T04:06:34;0.00;;;0.00;;
9836;SDS011;4957;51.412;6.724;2023-08-31T04:09:00;0.00;;;0.00;;
9836;SDS011;4957;51.412;6.724;2023-08-31T04:11:26;0.00;;;0.00;;
9836;SDS011;4957;51.412;6.724;2023-08-31T04:13:51;0.00;;;0.00;;
9836;SDS011;4957;51.412;6.724;2023-08-31T04:16:18;0.10;;;0.10;;
9836;SDS011;4957;51.412;6.724;2023-08-31T04:18:43;0.00;;;0.00;;
9836;SDS011;4957;51.412;6.724;2023-08-31T04:21:12;0.00;;;0.00;;
9836;SDS011;4957;51.412;6.724;2023-08-31T04:23:38;0.00;;;0.00;;
9836;SDS011;4957;51.412;6.724;2023-08-31T04:26:13;0.00;;;0.00;;
9836;SDS011;4957;51.412;6.724;2023-08-31T04:28:39;0.00;;;0.00;;
9836;SDS011;4957;51.412;6.724;2023-08-31T04:31:06;0.00;;;0.00;;
9836;SDS011;4957;51.412;6.724;2023-08-31T04:33:35;0.00;;;0.00;;
9836;SDS011;4957;51.412;6.724;2023-08-31T04:36:02;0.00;;;0.00;;
9836;SDS011;4957;51.412;6.724;2023-08-31T04:38:29;0.00;;;0.00;;
9836;SDS011;4957;51.412;6.724;2023-08-31T04:41:02;0.00;;;0.00;;
9836;SDS011;4957;51.412;6.724;2023-08-31T04:43:28;0.00;;;0.00;;
9836;SDS011;4957;51.412;6.724;2023-08-31T04:45:54;0.00;;;0.00;;
9836;SDS011;4957;51.412;6.724;2023-08-31T04:48:20;0.00;;;0.00;;
9836;SDS011;4957;51.412;6.724;2023-08-31T04:50:46;0.00;;;0.00;;
9836;SDS011;4957;51.412;6.724;2023-08-31T04:53:12;0.00;;;0.00;;
9836;SDS011;4957;51.412;6.724;2023-08-31T04:55:37;0.00;;;0.00;;
9836;SDS011;4957;51.412;6.724;2023-08-31T04:58:03;0.00;;;0.00;;
9836;SDS011;4957;51.412;6.724;2023-08-31T05:00:29;0.00;;;0.00;;
9836;SDS011;4957;51.412;6.724;2023-08-31T05:02:55;0.00;;;0.00;;
9836;SDS011;4957;51.412;6.724;2023-08-31T05:05:21;0.00;;;0.00;;
9836;SDS011;4957;51.412;6.724;2023-08-31T05:07:47;0.00;;;0.00;;
9836;SDS011;4957;51.412;6.724;2023-08-31T05:10:12;0.00;;;0.00;;
9836;SDS011;4957;51.412;6.724;2023-08-31T05:12:38;0.00;;;0.00;;
9836;SDS011;4957;51.412;6.724;2023-08-31T05:15:04;0.00;;;0.00;;
9836;SDS011;4957;51.412;6.724;2023-08-31T05:17:30;0.00;;;0.00;;
9836;SDS011;4957;51.412;6.724;2023-08-31T05:19:56;0.00;;;0.00;;
9836;SDS011;4957;51.412;6.724;2023-08-31T05:22:22;0.00;;;0.00;;
9836;SDS011;4957;51.412;6.724;2023-08-31T05:24:48;0.00;;;0.00;;
9836;SDS011;4957;51.412;6.724;2023-08-31T05:27:14;0.00;;;0.00;;
9836;SDS011;4957;51.412;6.724;2023-08-31T05:29:39;0.00;;;0.00;;
9836;SDS011;4957;51.412;6.724;2023-08-31T05:32:05;0.00;;;0.00;;
9836;SDS011;4957;51.412;6.724;2023-08-31T05:34:31;0.00;;;0.00;;
9836;SDS011;4957;51.412;6.724;2023-08-31T05:36:59;0.00;;;0.00;;
9836;SDS011;4957;51.412;6.724;2023-08-31T05:39:25;0.00;;;0.00;;
9836;SDS011;4957;51.412;6.724;2023-08-31T05:41:51;0.00;;;0.00;;
9836;SDS011;4957;51.412;6.724;2023-08-31T05:44:16;0.07;;;0.07;;
9836;SDS011;4957;51.412;6.724;2023-08-31T05:46:42;0.00;;;0.00;;
9836;SDS011;4957;51.412;6.724;2023-08-31T05:49:08;0.00;;;0.00;;
9836;SDS011;4957;51.412;6.724;2023-08-31T05:51:34;0.00;;;0.00;;
9836;SDS011;4957;51.412;6.724;2023-08-31T05:54:00;0.00;;;0.00;;
9836;SDS011;4957;51.412;6.724;2023-08-31T05:56:25;0.00;;;0.00;;
9836;SDS011;4957;51.412;6.724;2023-08-31T05:58:51;0.00;;;0.00;;
9836;SDS011;4957;51.412;6.724;2023-08-31T06:01:19;0.00;;;0.00;;
9836;SDS011;4957;51.412;6.724;2023-08-31T06:03:45;0.00;;;0.00;;
9836;SDS011;4957;51.412;6.724;2023-08-31T06:06:11;0.00;;;0.00;;
9836;SDS011;4957;51.412;6.724;2023-08-31T06:08:36;0.00;;;0.00;;
9836;SDS011;4957;51.412;6.724;2023-08-31T06:11:02;0.00;;;0.00;;
9836;SDS011;4957;51.412;6.724;2023-08-31T06:13:28;0.00;;;0.00;;
9836;SDS011;4957;51.412;6.724;2023-08-31T06:15:53;0.00;;;0.00;;
9836;SDS011;4957;51.412;6.724;2023-08-31T06:18:20;0.00;;;0.00;;
9836;SDS011;4957;51.412;6.724;2023-08-31T06:20:46;0.00;;;0.00;;
9836;SDS011;4957;51.412;6.724;2023-08-31T06:23:13;0.00;;;0.00;;
9836;SDS011;4957;51.412;6.724;2023-08-31T06:25:39;0.00;;;0.00;;
9836;SDS011;4957;51.412;6.724;2023-08-31T06:28:05;0.00;;;0.00;;
9836;SDS011;4957;51.412;6.724;2023-08-31T06:30:33;0.00;;;0.00;;
9836;SDS011;4957;51.412;6.724;2023-08-31T06:32:59;0.00;;;0.00;;
9836;SDS011;4957;51.412;6.724;2023-08-31T06:35:25;0.00;;;0.00;;
9836;SDS011;4957;51.412;6.724;2023-08-31T06:37:51;0.00;;;0.00;;
9836;SDS011;4957;51.412;6.724;2023-08-31T06:40:17;0.00;;;0.00;;
9836;SDS011;4957;51.412;6.724;2023-08-31T06:42:42;0.00;;;0.00;;
9836;SDS011;4957;51.412;6.724;2023-08-31T06:45:08;0.00;;;0.00;;
9836;SDS011;4957;51.412;6.724;2023-08-31T06:47:34;0.00;;;0.00;;
9836;SDS011;4957;51.412;6.724;2023-08-31T06:50:00;0.00;;;0.00;;
9836;SDS011;4957;51.412;6.724;2023-08-31T06:52:26;0.00;;;0.00;;
9836;SDS011;4957;51.412;6.724;2023-08-31T06:54:52;0.00;;;0.00;;
9836;SDS011;4957;51.412;6.724;2023-08-31T06:57:21;0.00;;;0.00;;
9836;SDS011;4957;51.412;6.724;2023-08-31T06:59:47;0.00;;;0.00;;
9836;SDS011;4957;51.412;6.724;2023-08-31T07:02:13;0.00;;;0.00;;
9836;SDS011;4957;51.412;6.724;2023-08-31T07:04:39;0.00;;;0.00;;
9836;SDS011;4957;51.412;6.724;2023-08-31T07:07:05;0.00;;;0.00;;
9836;SDS011;4957;51.412;6.724;2023-08-31T07:09:31;0.00;;;0.00;;
9836;SDS011;4957;51.412;6.724;2023-08-31T07:11:57;0.00;;;0.00;;
9836;SDS011;4957;51.412;6.724;2023-08-31T07:14:23;0.00;;;0.00;;
9836;SDS011;4957;51.412;6.724;2023-08-31T07:16:49;0.00;;;0.00;;
9836;SDS011;4957;51.412;6.724;2023-08-31T07:19:15;0.00;;;0.00;;
9836;SDS011;4957;51.412;6.724;2023-08-31T07:21:41;0.00;;;0.00;;
9836;SDS011;4957;51.412;6.724;2023-08-31T07:24:06;0.00;;;0.00;;
9836;SDS011;4957;51.412;6.724;2023-08-31T07:26:32;0.00;;;0.00;;
9836;SDS011;4957;51.412;6.724;2023-08-31T07:28:59;0.00;;;0.00;;
9836;SDS011;4957;51.412;6.724;2023-08-31T07:31:26;0.00;;;0.00;;
9836;SDS011;4957;51.412;6.724;2023-08-31T07:33:52;0.00;;;0.00;;
9836;SDS011;4957;51.412;6.724;2023-08-31T07:36:17;0.00;;;0.00;;
9836;SDS011;4957;51.412;6.724;2023-08-31T07:38:43;0.00;;;0.00;;
9836;SDS011;4957;51.412;6.724;2023-08-31T07:41:09;0.00;;;0.00;;
9836;SDS011;4957;51.412;6.724;2023-08-31T07:43:34;0.00;;;0.00;;
9836;SDS011;4957;51.412;6.724;2023-08-31T07:46:00;0.00;;;0.00;;
9836;SDS011;4957;51.412;6.724;2023-08-31T07:48:25;0.00;;;0.00;;
9836;SDS011;4957;51.412;6.724;2023-08-31T07:50:51;0.00;;;0.00;;
9836;SDS011;4957;51.412;6.724;2023-08-31T07:53:17;0.00;;;0.00;;
9836;SDS011;4957;51.412;6.724;2023-08-31T07:55:50;0.00;;;0.00;;
9836;SDS011;4957;51.412;6.724;2023-08-31T07:58:27;0.00;;;0.00;;
9836;SDS011;4957;51.412;6.724;2023-08-31T08:00:53;0.00;;;0.00;;
9836;SDS011;4957;51.412;6.724;2023-08-31T08:03:19;0.00;;;0.00;;
9836;SDS011;4957;51.412;6.724;2023-08-31T08:05:46;0.00;;;0.00;;
9836;SDS011;4957;51.412;6.724;2023-08-31T08:08:11;0.00;;;0.00;;
9836;SDS011;4957;51.412;6.724;2023-08-31T08:10:37;0.00;;;0.00;;
9836;SDS011;4957;51.412;6.724;2023-08-31T08:13:03;0.00;;;0.00;;
9836;SDS011;4957;51.412;6.724;2023-08-31T08:15:30;0.00;;;0.00;;
9836;SDS011;4957;51.412;6.724;2023-08-31T08:17:55;0.00;;;0.00;;
9836;SDS011;4957;51.412;6.724;2023-08-31T08:20:22;0.00;;;0.00;;
9836;SDS011;4957;51.412;6.724;2023-08-31T08:22:48;0.00;;;0.00;;
9836;SDS011;4957;51.412;6.724;2023-08-31T08:25:17;0.00;;;0.00;;
9836;SDS011;4957;51.412;6.724;2023-08-31T08:27:46;0.00;;;0.00;;
9836;SDS011;4957;51.412;6.724;2023-08-31T08:30:13;0.00;;;0.00;;
9836;SDS011;4957;51.412;6.724;2023-08-31T08:32:40;0.00;;;0.00;;
9836;SDS011;4957;51.412;6.724;2023-08-31T08:35:06;0.00;;;0.00;;
9836;SDS011;4957;51.412;6.724;2023-08-31T08:37:32;0.00;;;0.00;;
9836;SDS011;4957;51.412;6.724;2023-08-31T08:39:58;0.00;;;0.00;;
9836;SDS011;4957;51.412;6.724;2023-08-31T08:42:24;0.00;;;0.00;;
9836;SDS011;4957;51.412;6.724;2023-08-31T08:44:50;0.00;;;0.00;;
9836;SDS011;4957;51.412;6.724;2023-08-31T08:47:19;0.00;;;0.00;;
9836;SDS011;4957;51.412;6.724;2023-08-31T08:49:46;0.00;;;0.00;;
9836;SDS011;4957;51.412;6.724;2023-08-31T08:52:12;0.00;;;0.00;;
9836;SDS011;4957;51.412;6.724;2023-08-31T08:54:40;0.00;;;0.00;;
9836;SDS011;4957;51.412;6.724;2023-08-31T08:57:05;4.97;;;2.83;;
9836;SDS011;4957;51.412;6.724;2023-08-31T08:59:31;3.70;;;2.50;;
9836;SDS011;4957;51.412;6.724;2023-08-31T09:01:57;6.73;;;2.20;;
9836;SDS011;4957;51.412;6.724;2023-08-31T09:04:23;5.30;;;2.33;;
9836;SDS011;4957;51.412;6.724;2023-08-31T09:06:50;5.17;;;2.37;;
9836;SDS011;4957;51.412;6.724;2023-08-31T09:09:16;8.23;;;2.50;;
9836;SDS011;4957;51.412;6.724;2023-08-31T09:11:42;3.63;;;2.10;;
9836;SDS011;4957;51.412;6.724;2023-08-31T09:14:17;5.40;;;2.30;;
9836;SDS011;4957;51.412;6.724;2023-08-31T09:16:48;3.03;;;2.33;;
9836;SDS011;4957;51.412;6.724;2023-08-31T09:21:46;2.93;;;2.10;;
9836;SDS011;4957;51.412;6.724;2023-08-31T09:24:15;4.37;;;1.93;;
9836;SDS011;4957;51.412;6.724;2023-08-31T09:26:46;4.00;;;2.00;;
9836;SDS011;4957;51.412;6.724;2023-08-31T09:29:13;4.23;;;2.20;;
9836;SDS011;4957;51.412;6.724;2023-08-31T09:31:45;3.13;;;1.40;;
9836;SDS011;4957;51.412;6.724;2023-08-31T09:34:12;4.50;;;1.80;;
9836;SDS011;4957;51.412;6.724;2023-08-31T09:36:39;7.40;;;1.80;;
9836;SDS011;4957;51.412;6.724;2023-08-31T09:39:08;3.67;;;1.83;;
9836;SDS011;4957;51.412;6.724;2023-08-31T09:41:53;3.43;;;1.37;;
9836;SDS011;4957;51.412;6.724;2023-08-31T09:44:20;4.70;;;1.93;;
9836;SDS011;4957;51.412;6.724;2023-08-31T09:46:46;3.70;;;1.70;;
9836;SDS011;4957;51.412;6.724;2023-08-31T09:49:15;2.40;;;1.30;;
9836;SDS011;4957;51.412;6.724;2023-08-31T09:51:44;2.07;;;1.33;;
9836;SDS011;4957;51.412;6.724;2023-08-31T09:54:13;3.43;;;1.40;;
9836;SDS011;4957;51.412;6.724;2023-08-31T09:56:43;5.17;;;1.70;;
9836;SDS011;4957;51.412;6.724;2023-08-31T09:59:11;3.67;;;1.30;;
9836;SDS011;4957;51.412;6.724;2023-08-31T10:01:38;3.23;;;1.47;;
9836;SDS011;4957;51.412;6.724;2023-08-31T10:04:10;4.67;;;1.50;;
9836;SDS011;4957;51.412;6.724;2023-08-31T10:06:40;2.50;;;1.53;;
9836;SDS011;4957;51.412;6.724;2023-08-31T10:09:07;3.70;;;1.80;;
9836;SDS011;4957;51.412;6.724;2023-08-31T10:11:37;4.23;;;1.70;;
9836;SDS011;4957;51.412;6.724;2023-08-31T10:14:04;4.40;;;1.33;;
9836;SDS011;4957;51.412;6.724;2023-08-31T10:16:30;4.77;;;1.60;;
9836;SDS011;4957;51.412;6.724;2023-08-31T10:18:57;4.07;;;1.70;;
9836;SDS011;4957;51.412;6.724;2023-08-31T10:21:24;3.77;;;1.57;;
9836;SDS011;4957;51.412;6.724;2023-08-31T10:23:50;3.40;;;1.60;;
9836;SDS011;4957;51.412;6.724;2023-08-31T10:26:23;7.53;;;1.70;;
9836;SDS011;4957;51.412;6.724;2023-08-31T10:28:53;6.20;;;1.63;;
9836;SDS011;4957;51.412;6.724;2023-08-31T10:31:20;4.37;;;1.70;;
9836;SDS011;4957;51.412;6.724;2023-08-31T10:33:56;3.87;;;1.60;;
9836;SDS011;4957;51.412;6.724;2023-08-31T10:36:57;6.80;;;1.57;;
9836;SDS011;4957;51.412;6.724;2023-08-31T10:39:17;3.13;;;1.80;;
9836;SDS011;4957;51.412;6.724;2023-08-31T10:44:22;4.27;;;1.93;;
9836;SDS011;4957;51.412;6.724;2023-08-31T10:46:53;4.70;;;1.97;;
9836;SDS011;4957;51.412;6.724;2023-08-31T10:49:20;4.10;;;1.70;;
9836;SDS011;4957;51.412;6.724;2023-08-31T10:51:54;1.70;;;1.27;;
9836;SDS011;4957;51.412;6.724;2023-08-31T10:54:39;4.53;;;1.80;;
9836;SDS011;4957;51.412;6.724;2023-08-31T10:57:05;5.83;;;1.87;;
9836;SDS011;4957;51.412;6.724;2023-08-31T10:59:46;5.63;;;1.57;;
9836;SDS011;4957;51.412;6.724;2023-08-31T11:05:18;6.07;;;2.23;;
9836;SDS011;4957;51.412;6.724;2023-08-31T11:07:47;8.20;;;2.23;;
9836;SDS011;4957;51.412;6.724;2023-08-31T11:10:18;4.77;;;1.87;;
9836;SDS011;4957;51.412;6.724;2023-08-31T11:12:49;2.90;;;1.70;;
9836;SDS011;4957;51.412;6.724;2023-08-31T11:15:16;3.20;;;1.90;;
9836;SDS011;4957;51.412;6.724;2023-08-31T11:17:44;3.87;;;1.97;;
9836;SDS011;4957;51.412;6.724;2023-08-31T11:20:14;2.77;;;1.47;;
9836;SDS011;4957;51.412;6.724;2023-08-31T11:22:42;5.00;;;1.73;;
9836;SDS011;4957;51.412;6.724;2023-08-31T11:25:09;5.20;;;1.87;;
9836;SDS011;4957;51.412;6.724;2023-08-31T11:27:36;2.57;;;1.50;;
9836;SDS011;4957;51.412;6.724;2023-08-31T11:30:03;5.30;;;1.37;;
9836;SDS011;4957;51.412;6.724;2023-08-31T11:32:36;2.40;;;1.27;;
9836;SDS011;4957;51.412;6.724;2023-08-31T11:35:01;3.70;;;1.30;;
9836;SDS011;4957;51.412;6.724;2023-08-31T11:37:28;4.70;;;1.50;;
9836;SDS011;4957;51.412;6.724;2023-08-31T11:39:54;4.03;;;1.43;;
9836;SDS011;4957;51.412;6.724;2023-08-31T11:42:21;4.77;;;1.70;;
9836;SDS011;4957;51.412;6.724;2023-08-31T11:44:47;4.47;;;1.30;;
9836;SDS011;4957;51.412;6.724;2023-08-31T11:47:14;5.70;;;1.50;;
9836;SDS011;4957;51.412;6.724;2023-08-31T11:49:41;4.30;;;1.50;;
9836;SDS011;4957;51.412;6.724;2023-08-31T11:52:09;6.53;;;1.50;;
9836;SDS011;4957;51.412;6.724;2023-08-31T11:54:41;2.50;;;1.60;;
9836;SDS011;4957;51.412;6.724;2023-08-31T11:57:07;2.60;;;1.47;;
9836;SDS011;4957;51.412;6.724;2023-08-31T11:59:34;3.53;;;1.53;;
9836;SDS011;4957;51.412;6.724;2023-08-31T12:02:02;3.17;;;1.53;;
9836;SDS011;4957;51.412;6.724;2023-08-31T12:04:32;2.27;;;1.43;;
9836;SDS011;4957;51.412;6.724;2023-08-31T12:07:01;5.50;;;2.13;;
9836;SDS011;4957;51.412;6.724;2023-08-31T12:09:31;3.77;;;1.50;;
9836;SDS011;4957;51.412;6.724;2023-08-31T12:11:57;2.40;;;1.60;;
9836;SDS011;4957;51.412;6.724;2023-08-31T12:14:24;5.00;;;1.60;;
9836;SDS011;4957;51.412;6.724;2023-08-31T12:16:51;2.90;;;1.70;;
9836;SDS011;4957;51.412;6.724;2023-08-31T12:19:18;6.57;;;2.33;;
9836;SDS011;4957;51.412;6.724;2023-08-31T12:21:44;6.43;;;1.70;;
9836;SDS011;4957;51.412;6.724;2023-08-31T12:24:11;2.07;;;1.57;;
9836;SDS011;4957;51.412;6.724;2023-08-31T12:26:38;3.60;;;1.50;;
9836;SDS011;4957;51.412;6.724;2023-08-31T12:29:04;3.23;;;1.80;;
9836;SDS011;4957;51.412;6.724;2023-08-31T12:31:30;3.03;;;1.47;;
9836;SDS011;4957;51.412;6.724;2023-08-31T12:33:57;3.90;;;1.80;;
9836;SDS011;4957;51.412;6.724;2023-08-31T12:36:23;3.30;;;1.67;;
9836;SDS011;4957;51.412;6.724;2023-08-31T12:38:49;4.40;;;1.50;;
9836;SDS011;4957;51.412;6.724;2023-08-31T12:41:16;5.10;;;1.63;;
9836;SDS011;4957;51.412;6.724;2023-08-31T12:43:42;6.90;;;1.73;;
9836;SDS011;4957;51.412;6.724;2023-08-31T12:46:10;2.53;;;1.70;;
9836;SDS011;4957;51.412;6.724;2023-08-31T12:48:38;4.73;;;2.00;;
9836;SDS011;4957;51.412;6.724;2023-08-31T12:51:04;3.73;;;1.63;;
9836;SDS011;4957;51.412;6.724;2023-08-31T12:53:30;4.87;;;1.73;;
9836;SDS011;4957;51.412;6.724;2023-08-31T12:55:55;3.47;;;1.60;;
9836;SDS011;4957;51.412;6.724;2023-08-31T12:58:21;3.67;;;1.80;;
9836;SDS011;4957;51.412;6.724;2023-08-31T13:00:47;5.83;;;1.73;;
9836;SDS011;4957;51.412;6.724;2023-08-31T13:03:14;3.80;;;1.73;;
9836;SDS011;4957;51.412;6.724;2023-08-31T13:05:40;5.30;;;1.70;;
9836;SDS011;4957;51.412;6.724;2023-08-31T13:08:09;2.43;;;1.47;;
9836;SDS011;4957;51.412;6.724;2023-08-31T13:10:35;6.03;;;2.10;;
9836;SDS011;4957;51.412;6.724;2023-08-31T13:13:00;10.30;;;1.90;;
9836;SDS011;4957;51.412;6.724;2023-08-31T13:15:26;2.67;;;1.70;;
9836;SDS011;4957;51.412;6.724;2023-08-31T13:17:52;6.30;;;2.03;;
9836;SDS011;4957;51.412;6.724;2023-08-31T13:20:18;2.53;;;1.50;;
9836;SDS011;4957;51.412;6.724;2023-08-31T13:22:43;4.80;;;1.87;;
9836;SDS011;4957;51.412;6.724;2023-08-31T13:25:09;2.67;;;1.70;;
9836;SDS011;4957;51.412;6.724;2023-08-31T13:27:36;3.90;;;1.67;;
9836;SDS011;4957;51.412;6.724;2023-08-31T13:30:02;3.33;;;1.60;;
9836;SDS011;4957;51.412;6.724;2023-08-31T13:32:34;4.73;;;1.80;;
9836;SDS011;4957;51.412;6.724;2023-08-31T13:35:00;1.90;;;1.40;;
9836;SDS011;4957;51.412;6.724;2023-08-31T13:37:26;5.07;;;1.40;;
9836;SDS011;4957;51.412;6.724;2023-08-31T13:39:51;4.57;;;1.53;;
9836;SDS011;4957;51.412;6.724;2023-08-31T13:42:17;4.53;;;1.77;;
9836;SDS011;4957;51.412;6.724;2023-08-31T13:44:45;4.77;;;1.80;;
9836;SDS011;4957;51.412;6.724;2023-08-31T13:47:11;3.83;;;1.67;;
9836;SDS011;4957;51.412;6.724;2023-08-31T13:49:36;4.37;;;1.60;;
9836;SDS011;4957;51.412;6.724;2023-08-31T13:52:02;2.60;;;1.37;;
9836;SDS011;4957;51.412;6.724;2023-08-31T13:54:30;3.47;;;1.40;;
9836;SDS011;4957;51.412;6.724;2023-08-31T13:56:59;3.97;;;1.63;;
9836;SDS011;4957;51.412;6.724;2023-08-31T13:59:24;3.03;;;1.57;;
9836;SDS011;4957;51.412;6.724;2023-08-31T14:01:52;2.47;;;1.30;;
9836;SDS011;4957;51.412;6.724;2023-08-31T14:04:19;2.27;;;1.37;;
9836;SDS011;4957;51.412;6.724;2023-08-31T14:06:45;4.00;;;1.40;;
9836;SDS011;4957;51.412;6.724;2023-08-31T14:09:10;2.33;;;1.27;;
9836;SDS011;4957;51.412;6.724;2023-08-31T14:11:36;3.80;;;1.67;;
9836;SDS011;4957;51.412;6.724;2023-08-31T14:14:02;4.40;;;2.27;;
9836;SDS011;4957;51.412;6.724;2023-08-31T14:16:30;4.10;;;2.00;;
9836;SDS011;4957;51.412;6.724;2023-08-31T14:18:56;4.70;;;1.80;;
9836;SDS011;4957;51.412;6.724;2023-08-31T14:21:22;3.07;;;2.30;;
9836;SDS011;4957;51.412;6.724;2023-08-31T14:23:47;4.33;;;1.90;;
9836;SDS011;4957;51.412;6.724;2023-08-31T14:26:13;4.37;;;2.30;;
9836;SDS011;4957;51.412;6.724;2023-08-31T14:28:39;5.53;;;2.40;;
9836;SDS011;4957;51.412;6.724;2023-08-31T14:31:05;4.83;;;2.40;;
9836;SDS011;4957;51.412;6.724;2023-08-31T14:33:31;6.90;;;2.30;;
9836;SDS011;4957;51.412;6.724;2023-08-31T14:35:57;4.90;;;2.50;;
9836;SDS011;4957;51.412;6.724;2023-08-31T14:38:23;3.30;;;2.30;;
9836;SDS011;4957;51.412;6.724;2023-08-31T14:40:49;3.97;;;2.10;;
9836;SDS011;4957;51.412;6.724;2023-08-31T14:43:16;6.63;;;2.53;;
9836;SDS011;4957;51.412;6.724;2023-08-31T14:45:41;3.47;;;2.63;;
9836;SDS011;4957;51.412;6.724;2023-08-31T14:48:08;3.33;;;1.93;;
9836;SDS011;4957;51.412;6.724;2023-08-31T14:50:33;2.37;;;2.00;;
9836;SDS011;4957;51.412;6.724;2023-08-31T14:52:59;2.90;;;1.83;;
9836;SDS011;4957;51.412;6.724;2023-08-31T14:55:25;3.13;;;1.80;;
9836;SDS011;4957;51.412;6.724;2023-08-31T14:57:50;2.17;;;1.60;;
9836;SDS011;4957;51.412;6.724;2023-08-31T15:00:16;2.87;;;2.00;;
9836;SDS011;4957;51.412;6.724;2023-08-31T15:02:42;2.87;;;2.20;;
9836;SDS011;4957;51.412;6.724;2023-08-31T15:05:08;3.20;;;1.70;;
9836;SDS011;4957;51.412;6.724;2023-08-31T15:07:34;3.37;;;1.97;;
9836;SDS011;4957;51.412;6.724;2023-08-31T15:09:59;5.77;;;2.10;;
9836;SDS011;4957;51.412;6.724;2023-08-31T15:12:26;6.90;;;2.20;;
9836;SDS011;4957;51.412;6.724;2023-08-31T15:14:52;3.60;;;2.00;;
9836;SDS011;4957;51.412;6.724;2023-08-31T15:17:18;2.70;;;1.90;;
9836;SDS011;4957;51.412;6.724;2023-08-31T15:19:43;2.63;;;1.90;;
9836;SDS011;4957;51.412;6.724;2023-08-31T15:22:09;3.73;;;1.97;;
9836;SDS011;4957;51.412;6.724;2023-08-31T15:24:34;4.40;;;2.00;;
9836;SDS011;4957;51.412;6.724;2023-08-31T15:27:01;3.27;;;2.00;;
9836;SDS011;4957;51.412;6.724;2023-08-31T15:29:28;2.93;;;2.10;;
9836;SDS011;4957;51.412;6.724;2023-08-31T15:31:55;5.67;;;2.40;;
9836;SDS011;4957;51.412;6.724;2023-08-31T15:34:21;2.43;;;2.03;;